sensor_id;sensor_type;location;lat;lon;timestamp;P1;durP1;ratioP1;P2;durP2;ratioP2
4825;SDS011;2427;50.934;6.776;2023-07-29T00:02:05;1.50;;;1.40;;
4825;SDS011;2427;50.934;6.776;2023-07-29T00:04:31;2.00;;;1.47;;
4825;SDS011;2427;50.934;6.776;2023-07-29T00:06:56;2.17;;;1.77;;
4825;SDS011;2427;50.934;6.776;2023-07-29T00:09:22;4.60;;;2.73;;
4825;SDS011;2427;50.934;6.776;2023-07-29T00:11:47;2.07;;;1.73;;
4825;SDS011;2427;50.934;6.776;2023-07-29T00:14:13;1.90;;;1.70;;
4825;SDS011;2427;50.934;6.776;2023-07-29T00:16:38;1.83;;;1.47;;
4825;SDS011;2427;50.934;6.776;2023-07-29T00:19:04;4.30;;;1.63;;
4825;SDS011;2427;50.934;6.776;2023-07-29T00:21:30;1.60;;;1.50;;
4825;SDS011;2427;50.934;6.776;2023-07-29T00:23:55;1.70;;;1.60;;
4825;SDS011;2427;50.934;6.776;2023-07-29T00:26:22;2.90;;;1.80;;
4825;SDS011;2427;50.934;6.776;2023-07-29T00:28:50;3.73;;;1.60;;
4825;SDS011;2427;50.934;6.776;2023-07-29T00:31:16;2.70;;;1.50;;
4825;SDS011;2427;50.934;6.776;2023-07-29T00:33:42;2.00;;;1.77;;
4825;SDS011;2427;50.934;6.776;2023-07-29T00:36:07;1.57;;;1.33;;
4825;SDS011;2427;50.934;6.776;2023-07-29T00:38:33;1.77;;;1.47;;
4825;SDS011;2427;50.934;6.776;2023-07-29T00:40:59;3.30;;;1.50;;
4825;SDS011;2427;50.934;6.776;2023-07-29T00:43:27;1.87;;;1.77;;
4825;SDS011;2427;50.934;6.776;2023-07-29T00:45:52;1.40;;;1.30;;
4825;SDS011;2427;50.934;6.776;2023-07-29T00:48:18;1.43;;;1.30;;
4825;SDS011;2427;50.934;6.776;2023-07-29T00:50:44;2.03;;;1.47;;
4825;SDS011;2427;50.934;6.776;2023-07-29T00:53:10;1.50;;;1.40;;
4825;SDS011;2427;50.934;6.776;2023-07-29T00:55:36;3.63;;;1.50;;
4825;SDS011;2427;50.934;6.776;2023-07-29T00:58:02;2.40;;;1.40;;
4825;SDS011;2427;50.934;6.776;2023-07-29T01:11:01;1.50;;;1.40;;
4825;SDS011;2427;50.934;6.776;2023-07-29T01:16:34;1.50;;;1.40;;
4825;SDS011;2427;50.934;6.776;2023-07-29T01:19:06;2.10;;;1.50;;
4825;SDS011;2427;50.934;6.776;2023-07-29T01:21:50;2.60;;;1.27;;
4825;SDS011;2427;50.934;6.776;2023-07-29T01:24:16;1.20;;;1.10;;
4825;SDS011;2427;50.934;6.776;2023-07-29T01:26:42;1.70;;;1.30;;
4825;SDS011;2427;50.934;6.776;2023-07-29T01:29:07;1.37;;;1.27;;
4825;SDS011;2427;50.934;6.776;2023-07-29T01:31:34;1.60;;;1.50;;
4825;SDS011;2427;50.934;6.776;2023-07-29T01:34:08;1.60;;;1.47;;
4825;SDS011;2427;50.934;6.776;2023-07-29T01:36:40;2.60;;;1.40;;
4825;SDS011;2427;50.934;6.776;2023-07-29T01:39:10;1.60;;;1.50;;
4825;SDS011;2427;50.934;6.776;2023-07-29T01:41:36;2.70;;;1.50;;
4825;SDS011;2427;50.934;6.776;2023-07-29T01:44:02;2.80;;;1.43;;
4825;SDS011;2427;50.934;6.776;2023-07-29T01:46:29;2.17;;;1.40;;
4825;SDS011;2427;50.934;6.776;2023-07-29T01:48:58;1.87;;;1.77;;
4825;SDS011;2427;50.934;6.776;2023-07-29T01:51:24;2.43;;;1.33;;
4825;SDS011;2427;50.934;6.776;2023-07-29T01:53:50;2.30;;;1.90;;
4825;SDS011;2427;50.934;6.776;2023-07-29T01:56:16;1.60;;;1.50;;
4825;SDS011;2427;50.934;6.776;2023-07-29T01:58:41;2.17;;;1.60;;
4825;SDS011;2427;50.934;6.776;2023-07-29T02:01:07;3.13;;;1.83;;
4825;SDS011;2427;50.934;6.776;2023-07-29T02:03:32;1.83;;;1.60;;
4825;SDS011;2427;50.934;6.776;2023-07-29T02:05:58;2.70;;;1.90;;
4825;SDS011;2427;50.934;6.776;2023-07-29T02:08:23;1.87;;;1.77;;
4825;SDS011;2427;50.934;6.776;2023-07-29T02:10:49;4.17;;;1.90;;
4825;SDS011;2427;50.934;6.776;2023-07-29T02:13:14;3.43;;;2.00;;
4825;SDS011;2427;50.934;6.776;2023-07-29T02:15:40;2.27;;;2.07;;
4825;SDS011;2427;50.934;6.776;2023-07-29T02:18:06;2.10;;;2.00;;
4825;SDS011;2427;50.934;6.776;2023-07-29T02:20:32;2.33;;;1.50;;
4825;SDS011;2427;50.934;6.776;2023-07-29T02:22:58;2.60;;;1.97;;
4825;SDS011;2427;50.934;6.776;2023-07-29T02:25:23;1.90;;;1.80;;
4825;SDS011;2427;50.934;6.776;2023-07-29T02:27:49;4.30;;;2.10;;
4825;SDS011;2427;50.934;6.776;2023-07-29T02:30:14;2.53;;;2.20;;
4825;SDS011;2427;50.934;6.776;2023-07-29T02:32:40;2.47;;;1.90;;
4825;SDS011;2427;50.934;6.776;2023-07-29T02:35:06;1.80;;;1.70;;
4825;SDS011;2427;50.934;6.776;2023-07-29T02:37:31;2.90;;;1.70;;
4825;SDS011;2427;50.934;6.776;2023-07-29T02:39:57;1.87;;;1.77;;
4825;SDS011;2427;50.934;6.776;2023-07-29T02:42:22;1.97;;;1.83;;
4825;SDS011;2427;50.934;6.776;2023-07-29T02:44:48;4.13;;;1.60;;
4825;SDS011;2427;50.934;6.776;2023-07-29T02:47:13;3.50;;;1.63;;
4825;SDS011;2427;50.934;6.776;2023-07-29T02:49:39;2.87;;;1.63;;
4825;SDS011;2427;50.934;6.776;2023-07-29T02:52:05;3.73;;;1.70;;
4825;SDS011;2427;50.934;6.776;2023-07-29T02:54:30;3.77;;;2.13;;
4825;SDS011;2427;50.934;6.776;2023-07-29T02:56:56;1.63;;;1.53;;
4825;SDS011;2427;50.934;6.776;2023-07-29T02:59:21;3.63;;;1.73;;
4825;SDS011;2427;50.934;6.776;2023-07-29T03:01:47;1.83;;;1.57;;
4825;SDS011;2427;50.934;6.776;2023-07-29T03:04:12;2.40;;;1.30;;
4825;SDS011;2427;50.934;6.776;2023-07-29T03:06:38;3.03;;;1.80;;
4825;SDS011;2427;50.934;6.776;2023-07-29T03:09:04;2.03;;;1.63;;
4825;SDS011;2427;50.934;6.776;2023-07-29T03:11:30;1.70;;;1.40;;
4825;SDS011;2427;50.934;6.776;2023-07-29T03:13:56;2.60;;;1.90;;
4825;SDS011;2427;50.934;6.776;2023-07-29T03:16:21;2.13;;;1.73;;
4825;SDS011;2427;50.934;6.776;2023-07-29T03:18:47;2.97;;;1.50;;
4825;SDS011;2427;50.934;6.776;2023-07-29T03:21:13;1.63;;;1.53;;
4825;SDS011;2427;50.934;6.776;2023-07-29T03:23:39;1.63;;;1.50;;
4825;SDS011;2427;50.934;6.776;2023-07-29T03:26:04;2.47;;;1.63;;
4825;SDS011;2427;50.934;6.776;2023-07-29T03:28:35;5.10;;;1.60;;
4825;SDS011;2427;50.934;6.776;2023-07-29T03:31:02;1.70;;;1.60;;
4825;SDS011;2427;50.934;6.776;2023-07-29T03:33:28;1.83;;;1.70;;
4825;SDS011;2427;50.934;6.776;2023-07-29T03:35:54;3.10;;;1.70;;
4825;SDS011;2427;50.934;6.776;2023-07-29T03:38:20;2.43;;;2.00;;
4825;SDS011;2427;50.934;6.776;2023-07-29T03:40:45;3.10;;;1.97;;
4825;SDS011;2427;50.934;6.776;2023-07-29T03:43:11;3.30;;;1.80;;
4825;SDS011;2427;50.934;6.776;2023-07-29T03:45:37;1.80;;;1.60;;
4825;SDS011;2427;50.934;6.776;2023-07-29T03:48:04;2.30;;;1.93;;
4825;SDS011;2427;50.934;6.776;2023-07-29T03:50:29;8.30;;;2.17;;
4825;SDS011;2427;50.934;6.776;2023-07-29T03:52:55;2.77;;;2.10;;
4825;SDS011;2427;50.934;6.776;2023-07-29T03:55:22;2.27;;;1.90;;
4825;SDS011;2427;50.934;6.776;2023-07-29T03:57:47;3.73;;;2.00;;
4825;SDS011;2427;50.934;6.776;2023-07-29T04:00:13;1.90;;;1.70;;
4825;SDS011;2427;50.934;6.776;2023-07-29T04:02:39;3.20;;;2.57;;
4825;SDS011;2427;50.934;6.776;2023-07-29T04:05:05;4.07;;;2.10;;
4825;SDS011;2427;50.934;6.776;2023-07-29T04:07:33;2.73;;;2.53;;
4825;SDS011;2427;50.934;6.776;2023-07-29T04:09:59;2.60;;;2.03;;
4825;SDS011;2427;50.934;6.776;2023-07-29T04:12:25;2.17;;;2.00;;
4825;SDS011;2427;50.934;6.776;2023-07-29T04:14:51;3.63;;;2.03;;
4825;SDS011;2427;50.934;6.776;2023-07-29T04:17:17;2.67;;;2.30;;
4825;SDS011;2427;50.934;6.776;2023-07-29T04:19:42;5.93;;;2.80;;
4825;SDS011;2427;50.934;6.776;2023-07-29T04:22:08;3.03;;;2.73;;
4825;SDS011;2427;50.934;6.776;2023-07-29T04:24:33;3.13;;;2.60;;
4825;SDS011;2427;50.934;6.776;2023-07-29T04:26:59;3.00;;;2.63;;
4825;SDS011;2427;50.934;6.776;2023-07-29T04:29:25;2.73;;;2.40;;
4825;SDS011;2427;50.934;6.776;2023-07-29T04:31:50;2.90;;;2.70;;
4825;SDS011;2427;50.934;6.776;2023-07-29T04:34:16;4.13;;;2.70;;
4825;SDS011;2427;50.934;6.776;2023-07-29T04:36:45;2.60;;;2.40;;
4825;SDS011;2427;50.934;6.776;2023-07-29T04:39:11;2.67;;;2.47;;
4825;SDS011;2427;50.934;6.776;2023-07-29T04:41:37;2.60;;;2.40;;
4825;SDS011;2427;50.934;6.776;2023-07-29T04:44:03;2.60;;;2.40;;
4825;SDS011;2427;50.934;6.776;2023-07-29T04:46:28;3.33;;;3.03;;
4825;SDS011;2427;50.934;6.776;2023-07-29T04:48:54;7.33;;;3.13;;
4825;SDS011;2427;50.934;6.776;2023-07-29T04:51:19;5.47;;;3.23;;
4825;SDS011;2427;50.934;6.776;2023-07-29T04:53:45;3.77;;;2.70;;
4825;SDS011;2427;50.934;6.776;2023-07-29T04:56:10;5.73;;;2.90;;
4825;SDS011;2427;50.934;6.776;2023-07-29T04:58:36;2.60;;;2.40;;
4825;SDS011;2427;50.934;6.776;2023-07-29T05:01:02;5.50;;;3.00;;
4825;SDS011;2427;50.934;6.776;2023-07-29T05:03:28;4.00;;;2.83;;
4825;SDS011;2427;50.934;6.776;2023-07-29T05:05:54;4.77;;;2.60;;
4825;SDS011;2427;50.934;6.776;2023-07-29T05:08:21;5.50;;;2.80;;
4825;SDS011;2427;50.934;6.776;2023-07-29T05:10:49;2.60;;;2.40;;
4825;SDS011;2427;50.934;6.776;2023-07-29T05:13:16;4.93;;;3.00;;
4825;SDS011;2427;50.934;6.776;2023-07-29T05:15:43;6.47;;;2.77;;
4825;SDS011;2427;50.934;6.776;2023-07-29T05:18:08;4.47;;;2.70;;
4825;SDS011;2427;50.934;6.776;2023-07-29T05:20:34;3.50;;;2.57;;
4825;SDS011;2427;50.934;6.776;2023-07-29T05:22:59;3.50;;;3.10;;
4825;SDS011;2427;50.934;6.776;2023-07-29T05:25:25;2.60;;;2.40;;
4825;SDS011;2427;50.934;6.776;2023-07-29T05:27:51;4.40;;;2.60;;
4825;SDS011;2427;50.934;6.776;2023-07-29T05:30:17;3.63;;;2.20;;
4825;SDS011;2427;50.934;6.776;2023-07-29T05:32:42;3.10;;;2.70;;
4825;SDS011;2427;50.934;6.776;2023-07-29T05:35:08;3.07;;;2.63;;
4825;SDS011;2427;50.934;6.776;2023-07-29T05:37:34;3.20;;;2.47;;
4825;SDS011;2427;50.934;6.776;2023-07-29T05:40:03;2.47;;;2.27;;
4825;SDS011;2427;50.934;6.776;2023-07-29T05:42:29;2.37;;;2.20;;
4825;SDS011;2427;50.934;6.776;2023-07-29T05:44:54;3.60;;;2.30;;
4825;SDS011;2427;50.934;6.776;2023-07-29T05:47:20;3.73;;;2.70;;
4825;SDS011;2427;50.934;6.776;2023-07-29T05:49:45;4.37;;;2.63;;
4825;SDS011;2427;50.934;6.776;2023-07-29T05:52:11;2.83;;;2.20;;
4825;SDS011;2427;50.934;6.776;2023-07-29T05:54:36;4.00;;;2.60;;
4825;SDS011;2427;50.934;6.776;2023-07-29T05:57:02;2.87;;;2.40;;
4825;SDS011;2427;50.934;6.776;2023-07-29T05:59:28;2.50;;;2.30;;
4825;SDS011;2427;50.934;6.776;2023-07-29T06:01:54;5.60;;;1.80;;
4825;SDS011;2427;50.934;6.776;2023-07-29T06:04:20;2.77;;;2.03;;
4825;SDS011;2427;50.934;6.776;2023-07-29T06:06:45;3.53;;;2.23;;
4825;SDS011;2427;50.934;6.776;2023-07-29T06:09:11;2.30;;;1.80;;
4825;SDS011;2427;50.934;6.776;2023-07-29T06:11:36;1.90;;;1.80;;
4825;SDS011;2427;50.934;6.776;2023-07-29T06:14:02;3.00;;;2.10;;
4825;SDS011;2427;50.934;6.776;2023-07-29T06:16:27;4.83;;;2.50;;
4825;SDS011;2427;50.934;6.776;2023-07-29T06:18:53;3.40;;;2.13;;
4825;SDS011;2427;50.934;6.776;2023-07-29T06:21:20;2.00;;;1.80;;
4825;SDS011;2427;50.934;6.776;2023-07-29T06:23:46;3.43;;;1.50;;
4825;SDS011;2427;50.934;6.776;2023-07-29T06:26:11;7.07;;;1.80;;
4825;SDS011;2427;50.934;6.776;2023-07-29T06:28:37;1.63;;;1.30;;
4825;SDS011;2427;50.934;6.776;2023-07-29T06:31:03;2.50;;;2.07;;
4825;SDS011;2427;50.934;6.776;2023-07-29T06:33:28;1.77;;;1.53;;
4825;SDS011;2427;50.934;6.776;2023-07-29T06:35:54;2.63;;;1.90;;
4825;SDS011;2427;50.934;6.776;2023-07-29T06:38:19;2.07;;;1.70;;
4825;SDS011;2427;50.934;6.776;2023-07-29T06:40:50;2.30;;;2.00;;
4825;SDS011;2427;50.934;6.776;2023-07-29T06:43:16;3.87;;;1.83;;
4825;SDS011;2427;50.934;6.776;2023-07-29T06:45:41;3.20;;;1.73;;
4825;SDS011;2427;50.934;6.776;2023-07-29T06:48:07;3.17;;;1.90;;
4825;SDS011;2427;50.934;6.776;2023-07-29T06:50:33;1.73;;;1.63;;
4825;SDS011;2427;50.934;6.776;2023-07-29T06:52:59;1.80;;;1.63;;
4825;SDS011;2427;50.934;6.776;2023-07-29T06:55:24;1.63;;;1.53;;
4825;SDS011;2427;50.934;6.776;2023-07-29T06:57:50;2.67;;;1.73;;
4825;SDS011;2427;50.934;6.776;2023-07-29T07:00:18;2.37;;;1.63;;
4825;SDS011;2427;50.934;6.776;2023-07-29T07:02:52;2.53;;;1.90;;
4825;SDS011;2427;50.934;6.776;2023-07-29T07:05:17;1.83;;;1.73;;
4825;SDS011;2427;50.934;6.776;2023-07-29T07:07:43;2.03;;;1.70;;
4825;SDS011;2427;50.934;6.776;2023-07-29T07:10:09;1.80;;;1.70;;
4825;SDS011;2427;50.934;6.776;2023-07-29T07:12:34;3.90;;;2.30;;
4825;SDS011;2427;50.934;6.776;2023-07-29T07:15:00;1.97;;;1.63;;
4825;SDS011;2427;50.934;6.776;2023-07-29T07:17:26;2.30;;;2.10;;
4825;SDS011;2427;50.934;6.776;2023-07-29T07:19:51;2.80;;;1.83;;
4825;SDS011;2427;50.934;6.776;2023-07-29T07:22:17;2.80;;;1.90;;
4825;SDS011;2427;50.934;6.776;2023-07-29T07:24:42;1.80;;;1.70;;
4825;SDS011;2427;50.934;6.776;2023-07-29T07:27:09;1.93;;;1.57;;
4825;SDS011;2427;50.934;6.776;2023-07-29T07:29:34;5.00;;;1.83;;
4825;SDS011;2427;50.934;6.776;2023-07-29T07:32:00;4.37;;;2.20;;
4825;SDS011;2427;50.934;6.776;2023-07-29T07:34:25;3.00;;;2.10;;
4825;SDS011;2427;50.934;6.776;2023-07-29T07:36:51;2.53;;;1.90;;
4825;SDS011;2427;50.934;6.776;2023-07-29T07:39:17;1.60;;;1.50;;
4825;SDS011;2427;50.934;6.776;2023-07-29T07:41:42;5.10;;;1.80;;
4825;SDS011;2427;50.934;6.776;2023-07-29T07:44:08;2.27;;;1.97;;
4825;SDS011;2427;50.934;6.776;2023-07-29T07:46:33;1.37;;;1.27;;
4825;SDS011;2427;50.934;6.776;2023-07-29T07:48:59;3.10;;;1.70;;
4825;SDS011;2427;50.934;6.776;2023-07-29T07:51:25;2.67;;;1.70;;
4825;SDS011;2427;50.934;6.776;2023-07-29T07:53:50;6.53;;;1.60;;
4825;SDS011;2427;50.934;6.776;2023-07-29T07:56:16;3.27;;;1.60;;
4825;SDS011;2427;50.934;6.776;2023-07-29T07:58:41;2.83;;;1.50;;
4825;SDS011;2427;50.934;6.776;2023-07-29T08:01:08;3.80;;;1.80;;
4825;SDS011;2427;50.934;6.776;2023-07-29T08:03:34;2.40;;;1.80;;
4825;SDS011;2427;50.934;6.776;2023-07-29T08:06:00;2.13;;;1.50;;
4825;SDS011;2427;50.934;6.776;2023-07-29T08:08:26;4.43;;;1.40;;
4825;SDS011;2427;50.934;6.776;2023-07-29T08:10:52;1.30;;;1.20;;
4825;SDS011;2427;50.934;6.776;2023-07-29T08:13:21;4.70;;;1.50;;
4825;SDS011;2427;50.934;6.776;2023-07-29T08:15:48;2.33;;;1.10;;
4825;SDS011;2427;50.934;6.776;2023-07-29T08:18:14;2.53;;;1.23;;
4825;SDS011;2427;50.934;6.776;2023-07-29T08:20:40;3.87;;;1.20;;
4825;SDS011;2427;50.934;6.776;2023-07-29T08:23:06;2.77;;;0.90;;
4825;SDS011;2427;50.934;6.776;2023-07-29T08:25:32;2.53;;;1.00;;
4825;SDS011;2427;50.934;6.776;2023-07-29T08:27:57;1.00;;;0.80;;
4825;SDS011;2427;50.934;6.776;2023-07-29T08:30:23;1.00;;;0.90;;
4825;SDS011;2427;50.934;6.776;2023-07-29T08:32:48;1.20;;;1.10;;
4825;SDS011;2427;50.934;6.776;2023-07-29T08:35:15;1.00;;;0.90;;
4825;SDS011;2427;50.934;6.776;2023-07-29T08:37:40;1.30;;;0.90;;
4825;SDS011;2427;50.934;6.776;2023-07-29T08:40:06;1.67;;;1.10;;
4825;SDS011;2427;50.934;6.776;2023-07-29T08:42:32;0.90;;;0.70;;
4825;SDS011;2427;50.934;6.776;2023-07-29T08:45:06;2.90;;;1.00;;
4825;SDS011;2427;50.934;6.776;2023-07-29T08:47:33;2.60;;;0.87;;
4825;SDS011;2427;50.934;6.776;2023-07-29T08:49:59;1.53;;;0.90;;
4825;SDS011;2427;50.934;6.776;2023-07-29T08:52:26;1.00;;;0.90;;
4825;SDS011;2427;50.934;6.776;2023-07-29T08:54:52;1.63;;;1.00;;
4825;SDS011;2427;50.934;6.776;2023-07-29T08:57:20;1.20;;;0.90;;
4825;SDS011;2427;50.934;6.776;2023-07-29T08:59:47;6.43;;;1.00;;
4825;SDS011;2427;50.934;6.776;2023-07-29T09:02:13;1.40;;;1.30;;
4825;SDS011;2427;50.934;6.776;2023-07-29T09:04:38;1.00;;;0.90;;
4825;SDS011;2427;50.934;6.776;2023-07-29T09:07:04;1.20;;;1.00;;
4825;SDS011;2427;50.934;6.776;2023-07-29T09:09:32;1.30;;;1.13;;
4825;SDS011;2427;50.934;6.776;2023-07-29T09:11:57;1.83;;;1.00;;
4825;SDS011;2427;50.934;6.776;2023-07-29T09:14:23;1.60;;;0.97;;
4825;SDS011;2427;50.934;6.776;2023-07-29T09:16:49;1.10;;;1.00;;
4825;SDS011;2427;50.934;6.776;2023-07-29T09:19:15;2.33;;;1.23;;
4825;SDS011;2427;50.934;6.776;2023-07-29T09:21:41;1.23;;;0.97;;
4825;SDS011;2427;50.934;6.776;2023-07-29T09:24:07;2.50;;;1.27;;
4825;SDS011;2427;50.934;6.776;2023-07-29T09:26:33;1.97;;;1.00;;
4825;SDS011;2427;50.934;6.776;2023-07-29T09:28:59;3.10;;;1.33;;
4825;SDS011;2427;50.934;6.776;2023-07-29T09:31:26;3.13;;;1.20;;
4825;SDS011;2427;50.934;6.776;2023-07-29T09:33:56;1.17;;;1.00;;
4825;SDS011;2427;50.934;6.776;2023-07-29T09:36:23;1.73;;;1.00;;
4825;SDS011;2427;50.934;6.776;2023-07-29T09:38:52;2.07;;;1.10;;
4825;SDS011;2427;50.934;6.776;2023-07-29T09:41:18;1.53;;;1.10;;
4825;SDS011;2427;50.934;6.776;2023-07-29T09:43:46;1.40;;;1.30;;
4825;SDS011;2427;50.934;6.776;2023-07-29T09:46:12;1.53;;;1.30;;
4825;SDS011;2427;50.934;6.776;2023-07-29T09:48:38;1.30;;;1.17;;
4825;SDS011;2427;50.934;6.776;2023-07-29T09:51:13;2.07;;;1.27;;
4825;SDS011;2427;50.934;6.776;2023-07-29T09:53:40;1.57;;;1.20;;
4825;SDS011;2427;50.934;6.776;2023-07-29T09:56:10;1.27;;;1.17;;
4825;SDS011;2427;50.934;6.776;2023-07-29T09:58:37;1.10;;;1.00;;
4825;SDS011;2427;50.934;6.776;2023-07-29T10:01:06;1.17;;;1.07;;
4825;SDS011;2427;50.934;6.776;2023-07-29T10:03:33;1.57;;;1.00;;
4825;SDS011;2427;50.934;6.776;2023-07-29T10:06:00;2.17;;;1.00;;
4825;SDS011;2427;50.934;6.776;2023-07-29T10:08:27;1.17;;;1.00;;
4825;SDS011;2427;50.934;6.776;2023-07-29T10:11:01;1.10;;;0.97;;
4825;SDS011;2427;50.934;6.776;2023-07-29T10:13:27;0.90;;;0.70;;
4825;SDS011;2427;50.934;6.776;2023-07-29T10:15:53;1.20;;;1.10;;
4825;SDS011;2427;50.934;6.776;2023-07-29T10:18:20;1.20;;;1.10;;
4825;SDS011;2427;50.934;6.776;2023-07-29T10:20:48;1.60;;;1.00;;
4825;SDS011;2427;50.934;6.776;2023-07-29T10:23:17;1.20;;;1.00;;
4825;SDS011;2427;50.934;6.776;2023-07-29T10:25:47;1.13;;;1.00;;
4825;SDS011;2427;50.934;6.776;2023-07-29T10:28:18;2.33;;;1.30;;
4825;SDS011;2427;50.934;6.776;2023-07-29T10:30:49;1.53;;;1.23;;
4825;SDS011;2427;50.934;6.776;2023-07-29T10:33:15;3.10;;;1.10;;
4825;SDS011;2427;50.934;6.776;2023-07-29T10:35:41;1.30;;;1.20;;
4825;SDS011;2427;50.934;6.776;2023-07-29T10:38:07;1.07;;;0.97;;
4825;SDS011;2427;50.934;6.776;2023-07-29T10:40:43;1.00;;;0.90;;
4825;SDS011;2427;50.934;6.776;2023-07-29T10:43:11;3.43;;;0.93;;
4825;SDS011;2427;50.934;6.776;2023-07-29T10:45:37;1.20;;;1.00;;
4825;SDS011;2427;50.934;6.776;2023-07-29T10:48:13;1.30;;;1.20;;
4825;SDS011;2427;50.934;6.776;2023-07-29T10:54:02;1.27;;;1.17;;
4825;SDS011;2427;50.934;6.776;2023-07-29T11:01:42;1.50;;;1.20;;
4825;SDS011;2427;50.934;6.776;2023-07-29T11:12:33;1.10;;;1.00;;
4825;SDS011;2427;50.934;6.776;2023-07-29T11:17:34;1.63;;;1.13;;
4825;SDS011;2427;50.934;6.776;2023-07-29T11:20:00;2.17;;;1.47;;
4825;SDS011;2427;50.934;6.776;2023-07-29T11:22:28;1.20;;;1.10;;
4825;SDS011;2427;50.934;6.776;2023-07-29T11:24:54;1.30;;;1.20;;
4825;SDS011;2427;50.934;6.776;2023-07-29T11:27:19;3.27;;;1.27;;
4825;SDS011;2427;50.934;6.776;2023-07-29T11:29:46;1.90;;;1.13;;
4825;SDS011;2427;50.934;6.776;2023-07-29T11:32:12;2.40;;;1.07;;
4825;SDS011;2427;50.934;6.776;2023-07-29T11:34:38;2.17;;;1.20;;
4825;SDS011;2427;50.934;6.776;2023-07-29T11:37:05;1.43;;;1.33;;
4825;SDS011;2427;50.934;6.776;2023-07-29T11:39:31;3.30;;;1.30;;
4825;SDS011;2427;50.934;6.776;2023-07-29T11:41:57;1.27;;;0.97;;
4825;SDS011;2427;50.934;6.776;2023-07-29T11:44:24;1.10;;;1.00;;
4825;SDS011;2427;50.934;6.776;2023-07-29T11:46:50;1.20;;;0.90;;
4825;SDS011;2427;50.934;6.776;2023-07-29T11:49:16;1.47;;;1.30;;
4825;SDS011;2427;50.934;6.776;2023-07-29T11:51:41;1.07;;;0.97;;
4825;SDS011;2427;50.934;6.776;2023-07-29T11:54:08;1.40;;;1.00;;
4825;SDS011;2427;50.934;6.776;2023-07-29T11:56:34;1.67;;;1.47;;
4825;SDS011;2427;50.934;6.776;2023-07-29T11:59:01;1.00;;;0.90;;
4825;SDS011;2427;50.934;6.776;2023-07-29T12:01:27;2.13;;;1.10;;
4825;SDS011;2427;50.934;6.776;2023-07-29T12:03:53;0.90;;;0.80;;
4825;SDS011;2427;50.934;6.776;2023-07-29T12:06:20;1.10;;;1.00;;
4825;SDS011;2427;50.934;6.776;2023-07-29T12:08:47;1.03;;;0.90;;
4825;SDS011;2427;50.934;6.776;2023-07-29T12:11:13;3.57;;;1.10;;
4825;SDS011;2427;50.934;6.776;2023-07-29T12:13:41;1.70;;;1.33;;
4825;SDS011;2427;50.934;6.776;2023-07-29T12:16:07;1.30;;;1.10;;
4825;SDS011;2427;50.934;6.776;2023-07-29T12:18:32;1.40;;;1.00;;
4825;SDS011;2427;50.934;6.776;2023-07-29T12:20:59;1.80;;;1.03;;
4825;SDS011;2427;50.934;6.776;2023-07-29T12:23:25;1.33;;;1.10;;
4825;SDS011;2427;50.934;6.776;2023-07-29T12:25:51;2.63;;;1.10;;
4825;SDS011;2427;50.934;6.776;2023-07-29T12:28:22;1.10;;;1.00;;
4825;SDS011;2427;50.934;6.776;2023-07-29T12:30:48;1.10;;;1.00;;
4825;SDS011;2427;50.934;6.776;2023-07-29T12:35:59;1.00;;;0.90;;
4825;SDS011;2427;50.934;6.776;2023-07-29T12:38:26;1.33;;;1.07;;
4825;SDS011;2427;50.934;6.776;2023-07-29T12:40:55;1.73;;;1.10;;
4825;SDS011;2427;50.934;6.776;2023-07-29T12:43:21;1.23;;;0.87;;
4825;SDS011;2427;50.934;6.776;2023-07-29T12:45:48;4.00;;;1.47;;
4825;SDS011;2427;50.934;6.776;2023-07-29T12:48:14;1.30;;;1.00;;
4825;SDS011;2427;50.934;6.776;2023-07-29T12:50:40;1.00;;;0.90;;
4825;SDS011;2427;50.934;6.776;2023-07-29T12:53:06;1.70;;;0.90;;
4825;SDS011;2427;50.934;6.776;2023-07-29T12:55:33;2.50;;;1.17;;
4825;SDS011;2427;50.934;6.776;2023-07-29T12:57:59;1.43;;;1.00;;
4825;SDS011;2427;50.934;6.776;2023-07-29T13:00:25;1.47;;;1.10;;
4825;SDS011;2427;50.934;6.776;2023-07-29T13:02:51;1.30;;;1.10;;
4825;SDS011;2427;50.934;6.776;2023-07-29T13:05:17;1.03;;;0.93;;
4825;SDS011;2427;50.934;6.776;2023-07-29T13:07:42;3.03;;;1.00;;
4825;SDS011;2427;50.934;6.776;2023-07-29T13:10:08;2.27;;;1.00;;
4825;SDS011;2427;50.934;6.776;2023-07-29T13:12:35;1.20;;;1.10;;
4825;SDS011;2427;50.934;6.776;2023-07-29T13:15:00;1.50;;;1.20;;
4825;SDS011;2427;50.934;6.776;2023-07-29T13:17:26;1.33;;;1.10;;
4825;SDS011;2427;50.934;6.776;2023-07-29T13:19:52;1.77;;;1.17;;
4825;SDS011;2427;50.934;6.776;2023-07-29T13:22:17;2.40;;;1.47;;
4825;SDS011;2427;50.934;6.776;2023-07-29T13:24:44;2.70;;;1.63;;
4825;SDS011;2427;50.934;6.776;2023-07-29T13:27:10;2.13;;;1.77;;
4825;SDS011;2427;50.934;6.776;2023-07-29T13:29:35;3.10;;;1.30;;
4825;SDS011;2427;50.934;6.776;2023-07-29T13:32:01;3.73;;;1.00;;
4825;SDS011;2427;50.934;6.776;2023-07-29T13:34:26;1.47;;;1.37;;
4825;SDS011;2427;50.934;6.776;2023-07-29T13:36:52;1.90;;;1.47;;
4825;SDS011;2427;50.934;6.776;2023-07-29T13:39:18;1.70;;;1.50;;
4825;SDS011;2427;50.934;6.776;2023-07-29T13:41:44;1.73;;;1.37;;
4825;SDS011;2427;50.934;6.776;2023-07-29T13:44:09;2.33;;;1.30;;
4825;SDS011;2427;50.934;6.776;2023-07-29T13:46:35;1.77;;;1.40;;
4825;SDS011;2427;50.934;6.776;2023-07-29T13:49:00;9.10;;;2.67;;
4825;SDS011;2427;50.934;6.776;2023-07-29T13:51:27;3.53;;;1.83;;
4825;SDS011;2427;50.934;6.776;2023-07-29T13:53:52;2.57;;;1.80;;
4825;SDS011;2427;50.934;6.776;2023-07-29T13:56:18;3.57;;;2.00;;
4825;SDS011;2427;50.934;6.776;2023-07-29T13:58:43;6.60;;;1.53;;
4825;SDS011;2427;50.934;6.776;2023-07-29T14:01:09;2.90;;;1.87;;
4825;SDS011;2427;50.934;6.776;2023-07-29T14:03:34;3.53;;;2.03;;
4825;SDS011;2427;50.934;6.776;2023-07-29T14:06:00;3.30;;;1.73;;
4825;SDS011;2427;50.934;6.776;2023-07-29T14:08:26;2.37;;;1.77;;
4825;SDS011;2427;50.934;6.776;2023-07-29T14:10:51;2.63;;;1.97;;
4825;SDS011;2427;50.934;6.776;2023-07-29T14:13:17;2.57;;;1.87;;
4825;SDS011;2427;50.934;6.776;2023-07-29T14:15:42;2.97;;;1.97;;
4825;SDS011;2427;50.934;6.776;2023-07-29T14:18:08;3.20;;;2.30;;
4825;SDS011;2427;50.934;6.776;2023-07-29T14:20:33;2.50;;;1.57;;
4825;SDS011;2427;50.934;6.776;2023-07-29T14:22:59;2.50;;;1.73;;
4825;SDS011;2427;50.934;6.776;2023-07-29T14:25:24;3.27;;;2.40;;
4825;SDS011;2427;50.934;6.776;2023-07-29T14:27:50;2.27;;;1.57;;
4825;SDS011;2427;50.934;6.776;2023-07-29T14:30:16;6.10;;;1.77;;
4825;SDS011;2427;50.934;6.776;2023-07-29T14:32:41;1.80;;;1.33;;
4825;SDS011;2427;50.934;6.776;2023-07-29T14:35:07;2.03;;;1.50;;
4825;SDS011;2427;50.934;6.776;2023-07-29T14:37:33;2.20;;;1.60;;
4825;SDS011;2427;50.934;6.776;2023-07-29T14:40:00;4.30;;;1.80;;
4825;SDS011;2427;50.934;6.776;2023-07-29T14:42:26;1.93;;;1.83;;
4825;SDS011;2427;50.934;6.776;2023-07-29T14:44:52;2.60;;;1.53;;
4825;SDS011;2427;50.934;6.776;2023-07-29T14:47:19;1.77;;;1.60;;
4825;SDS011;2427;50.934;6.776;2023-07-29T14:49:44;6.13;;;1.50;;
4825;SDS011;2427;50.934;6.776;2023-07-29T14:52:10;1.67;;;1.33;;
4825;SDS011;2427;50.934;6.776;2023-07-29T14:54:36;2.17;;;1.30;;
4825;SDS011;2427;50.934;6.776;2023-07-29T14:57:02;1.60;;;1.50;;
4825;SDS011;2427;50.934;6.776;2023-07-29T14:59:30;2.13;;;1.30;;
4825;SDS011;2427;50.934;6.776;2023-07-29T15:01:55;2.27;;;1.87;;
4825;SDS011;2427;50.934;6.776;2023-07-29T15:04:21;5.20;;;1.93;;
4825;SDS011;2427;50.934;6.776;2023-07-29T15:06:46;2.40;;;1.63;;
4825;SDS011;2427;50.934;6.776;2023-07-29T15:09:12;2.00;;;1.60;;
4825;SDS011;2427;50.934;6.776;2023-07-29T15:11:38;1.93;;;1.57;;
4825;SDS011;2427;50.934;6.776;2023-07-29T15:14:03;2.33;;;2.03;;
4825;SDS011;2427;50.934;6.776;2023-07-29T15:16:29;1.57;;;1.47;;
4825;SDS011;2427;50.934;6.776;2023-07-29T15:18:54;1.73;;;1.63;;
4825;SDS011;2427;50.934;6.776;2023-07-29T15:21:20;1.80;;;1.40;;
4825;SDS011;2427;50.934;6.776;2023-07-29T15:23:46;1.47;;;1.37;;
4825;SDS011;2427;50.934;6.776;2023-07-29T15:26:12;1.13;;;1.03;;
4825;SDS011;2427;50.934;6.776;2023-07-29T15:28:37;1.57;;;1.40;;
4825;SDS011;2427;50.934;6.776;2023-07-29T15:31:03;1.83;;;1.50;;
4825;SDS011;2427;50.934;6.776;2023-07-29T15:33:28;1.40;;;1.30;;
4825;SDS011;2427;50.934;6.776;2023-07-29T15:35:54;2.23;;;1.93;;
4825;SDS011;2427;50.934;6.776;2023-07-29T15:38:20;1.53;;;1.27;;
4825;SDS011;2427;50.934;6.776;2023-07-29T15:40:45;2.30;;;2.10;;
4825;SDS011;2427;50.934;6.776;2023-07-29T15:43:13;2.03;;;1.70;;
4825;SDS011;2427;50.934;6.776;2023-07-29T15:45:39;2.07;;;1.90;;